sensor_id;sensor_type;location;lat;lon;timestamp;temperature;humidity
11922;DHT22;6021;51.182;3.160;2023-08-24T00:00:30;19.00;99.90
11922;DHT22;6021;51.182;3.160;2023-08-24T00:03:00;19.00;99.90
11922;DHT22;6021;51.182;3.160;2023-08-24T00:05:34;19.00;99.90
11922;DHT22;6021;51.182;3.160;2023-08-24T00:08:06;19.00;99.90
11922;DHT22;6021;51.182;3.160;2023-08-24T00:10:39;19.00;99.90
11922;DHT22;6021;51.182;3.160;2023-08-24T00:13:07;19.00;99.90
11922;DHT22;6021;51.182;3.160;2023-08-24T00:15:36;18.90;99.90
11922;DHT22;6021;51.182;3.160;2023-08-24T00:18:04;18.90;99.90
11922;DHT22;6021;51.182;3.160;2023-08-24T00:20:34;18.90;99.90
11922;DHT22;6021;51.182;3.160;2023-08-24T00:23:02;18.80;99.90
11922;DHT22;6021;51.182;3.160;2023-08-24T00:25:31;18.90;99.90
11922;DHT22;6021;51.182;3.160;2023-08-24T00:27:59;18.80;99.90
11922;DHT22;6021;51.182;3.160;2023-08-24T00:30:28;18.80;99.90
11922;DHT22;6021;51.182;3.160;2023-08-24T00:32:56;18.80;99.90
11922;DHT22;6021;51.182;3.160;2023-08-24T00:35:25;18.80;99.90
11922;DHT22;6021;51.182;3.160;2023-08-24T00:37:53;18.80;99.90
11922;DHT22;6021;51.182;3.160;2023-08-24T00:40:22;18.70;99.90
11922;DHT22;6021;51.182;3.160;2023-08-24T00:42:50;18.70;99.90
11922;DHT22;6021;51.182;3.160;2023-08-24T00:45:18;18.70;99.90
11922;DHT22;6021;51.182;3.160;2023-08-24T01:15:37;17.90;99.90
11922;DHT22;6021;51.182;3.160;2023-08-24T01:18:13;17.80;99.90
11922;DHT22;6021;51.182;3.160;2023-08-24T01:20:38;17.80;99.90
11922;DHT22;6021;51.182;3.160;2023-08-24T01:23:24;17.80;99.90
11922;DHT22;6021;51.182;3.160;2023-08-24T01:25:58;17.80;99.90
11922;DHT22;6021;51.182;3.160;2023-08-24T01:28:23;17.80;99.90
11922;DHT22;6021;51.182;3.160;2023-08-24T01:30:52;17.80;99.90
11922;DHT22;6021;51.182;3.160;2023-08-24T01:33:21;17.80;99.90
11922;DHT22;6021;51.182;3.160;2023-08-24T01:35:50;17.80;99.90
11922;DHT22;6021;51.182;3.160;2023-08-24T01:38:18;17.80;99.90
11922;DHT22;6021;51.182;3.160;2023-08-24T01:41:09;17.90;99.90
11922;DHT22;6021;51.182;3.160;2023-08-24T01:43:36;17.80;99.90
11922;DHT22;6021;51.182;3.160;2023-08-24T01:46:07;17.90;99.90
11922;DHT22;6021;51.182;3.160;2023-08-24T01:48:36;17.90;99.90
11922;DHT22;6021;51.182;3.160;2023-08-24T01:51:05;17.90;99.90
11922;DHT22;6021;51.182;3.160;2023-08-24T01:53:35;17.90;99.90
11922;DHT22;6021;51.182;3.160;2023-08-24T01:56:11;17.90;99.90
11922;DHT22;6021;51.182;3.160;2023-08-24T01:58:40;17.80;99.90
11922;DHT22;6021;51.182;3.160;2023-08-24T02:01:09;17.80;99.90
11922;DHT22;6021;51.182;3.160;2023-08-24T02:03:40;17.80;99.90
11922;DHT22;6021;51.182;3.160;2023-08-24T02:06:09;17.80;99.90
11922;DHT22;6021;51.182;3.160;2023-08-24T02:08:37;17.80;99.90
11922;DHT22;6021;51.182;3.160;2023-08-24T02:11:07;17.70;99.90
11922;DHT22;6021;51.182;3.160;2023-08-24T02:13:35;17.70;99.90
11922;DHT22;6021;51.182;3.160;2023-08-24T02:16:08;17.70;99.90
11922;DHT22;6021;51.182;3.160;2023-08-24T02:18:36;17.70;99.90
11922;DHT22;6021;51.182;3.160;2023-08-24T02:21:08;17.70;99.90
11922;DHT22;6021;51.182;3.160;2023-08-24T02:23:39;17.70;99.90
11922;DHT22;6021;51.182;3.160;2023-08-24T02:26:07;17.70;99.90
11922;DHT22;6021;51.182;3.160;2023-08-24T02:28:37;17.70;99.90
11922;DHT22;6021;51.182;3.160;2023-08-24T02:31:05;17.70;99.90
11922;DHT22;6021;51.182;3.160;2023-08-24T02:33:34;17.70;99.90
11922;DHT22;6021;51.182;3.160;2023-08-24T02:36:03;17.70;99.90
11922;DHT22;6021;51.182;3.160;2023-08-24T02:38:31;17.70;99.90
11922;DHT22;6021;51.182;3.160;2023-08-24T02:41:03;17.80;99.90
11922;DHT22;6021;51.182;3.160;2023-08-24T02:43:33;17.80;99.90
11922;DHT22;6021;51.182;3.160;2023-08-24T02:46:10;17.80;99.90
11922;DHT22;6021;51.182;3.160;2023-08-24T02:48:35;17.80;99.90
11922;DHT22;6021;51.182;3.160;2023-08-24T02:51:04;17.80;99.90
11922;DHT22;6021;51.182;3.160;2023-08-24T02:53:33;17.70;99.90
11922;DHT22;6021;51.182;3.160;2023-08-24T02:56:02;17.70;99.90
11922;DHT22;6021;51.182;3.160;2023-08-24T02:58:30;17.70;99.90
11922;DHT22;6021;51.182;3.160;2023-08-24T03:01:03;17.60;99.90
11922;DHT22;6021;51.182;3.160;2023-08-24T03:03:29;17.60;99.90
11922;DHT22;6021;51.182;3.160;2023-08-24T03:05:59;17.60;99.90
11922;DHT22;6021;51.182;3.160;2023-08-24T03:08:30;17.50;99.90
11922;DHT22;6021;51.182;3.160;2023-08-24T03:11:02;17.50;99.90
11922;DHT22;6021;51.182;3.160;2023-08-24T03:13:31;17.50;99.90
11922;DHT22;6021;51.182;3.160;2023-08-24T03:16:04;17.50;99.90
11922;DHT22;6021;51.182;3.160;2023-08-24T03:18:33;17.50;99.90
11922;DHT22;6021;51.182;3.160;2023-08-24T03:21:01;17.50;99.90
11922;DHT22;6021;51.182;3.160;2023-08-24T03:23:29;17.50;99.90
11922;DHT22;6021;51.182;3.160;2023-08-24T03:25:58;17.50;99.90
11922;DHT22;6021;51.182;3.160;2023-08-24T03:28:26;17.60;99.90
11922;DHT22;6021;51.182;3.160;2023-08-24T03:30:55;17.60;99.90
11922;DHT22;6021;51.182;3.160;2023-08-24T03:33:23;17.60;99.90
11922;DHT22;6021;51.182;3.160;2023-08-24T03:35:51;17.60;99.90
11922;DHT22;6021;51.182;3.160;2023-08-24T03:38:20;17.50;99.90
11922;DHT22;6021;51.182;3.160;2023-08-24T03:40:48;17.50;99.90
11922;DHT22;6021;51.182;3.160;2023-08-24T03:43:18;17.40;99.90
11922;DHT22;6021;51.182;3.160;2023-08-24T03:45:46;17.40;99.90
11922;DHT22;6021;51.182;3.160;2023-08-24T03:48:14;17.40;99.90
11922;DHT22;6021;51.182;3.160;2023-08-24T03:50:43;17.30;99.90
11922;DHT22;6021;51.182;3.160;2023-08-24T03:53:11;17.40;99.90
11922;DHT22;6021;51.182;3.160;2023-08-24T03:55:40;17.30;99.90
11922;DHT22;6021;51.182;3.160;2023-08-24T03:58:08;17.30;99.90
11922;DHT22;6021;51.182;3.160;2023-08-24T04:00:38;17.30;99.90
11922;DHT22;6021;51.182;3.160;2023-08-24T04:03:07;17.30;99.90
11922;DHT22;6021;51.182;3.160;2023-08-24T04:05:35;17.20;99.90
11922;DHT22;6021;51.182;3.160;2023-08-24T04:08:04;17.30;99.90
11922;DHT22;6021;51.182;3.160;2023-08-24T04:10:32;17.20;99.90
11922;DHT22;6021;51.182;3.160;2023-08-24T04:13:00;17.20;99.90
11922;DHT22;6021;51.182;3.160;2023-08-24T04:15:29;17.20;99.90
11922;DHT22;6021;51.182;3.160;2023-08-24T04:17:57;17.10;99.90
11922;DHT22;6021;51.182;3.160;2023-08-24T04:20:25;17.10;99.90
11922;DHT22;6021;51.182;3.160;2023-08-24T04:22:54;17.10;99.90
11922;DHT22;6021;51.182;3.160;2023-08-24T04:25:23;17.10;99.90
11922;DHT22;6021;51.182;3.160;2023-08-24T04:27:52;17.10;99.90
11922;DHT22;6021;51.182;3.160;2023-08-24T04:30:20;17.10;99.90
11922;DHT22;6021;51.182;3.160;2023-08-24T04:32:49;17.10;99.90
11922;DHT22;6021;51.182;3.160;2023-08-24T04:35:18;17.10;99.90
11922;DHT22;6021;51.182;3.160;2023-08-24T04:37:46;17.10;99.90
11922;DHT22;6021;51.182;3.160;2023-08-24T04:40:14;17.10;99.90
11922;DHT22;6021;51.182;3.160;2023-08-24T04:42:43;17.10;99.90
11922;DHT22;6021;51.182;3.160;2023-08-24T04:45:11;17.00;99.90
11922;DHT22;6021;51.182;3.160;2023-08-24T04:47:39;17.00;99.90
11922;DHT22;6021;51.182;3.160;2023-08-24T04:50:08;17.00;99.90
11922;DHT22;6021;51.182;3.160;2023-08-24T04:52:37;17.00;99.90
11922;DHT22;6021;51.182;3.160;2023-08-24T04:55:05;16.90;99.90
11922;DHT22;6021;51.182;3.160;2023-08-24T04:57:34;16.90;99.90
11922;DHT22;6021;51.182;3.160;2023-08-24T05:00:02;17.00;99.90
11922;DHT22;6021;51.182;3.160;2023-08-24T05:02:32;17.00;99.90
11922;DHT22;6021;51.182;3.160;2023-08-24T05:05:01;17.00;99.90
11922;DHT22;6021;51.182;3.160;2023-08-24T05:07:29;17.00;99.90
11922;DHT22;6021;51.182;3.160;2023-08-24T05:09:58;17.00;99.90
11922;DHT22;6021;51.182;3.160;2023-08-24T05:12:26;17.00;99.90
11922;DHT22;6021;51.182;3.160;2023-08-24T05:14:54;17.00;99.90
11922;DHT22;6021;51.182;3.160;2023-08-24T05:17:23;17.00;99.90
11922;DHT22;6021;51.182;3.160;2023-08-24T05:19:54;17.00;99.90
11922;DHT22;6021;51.182;3.160;2023-08-24T05:22:22;17.10;99.90
11922;DHT22;6021;51.182;3.160;2023-08-24T05:24:50;17.00;99.90
11922;DHT22;6021;51.182;3.160;2023-08-24T05:27:19;17.10;99.90
11922;DHT22;6021;51.182;3.160;2023-08-24T05:29:47;17.10;99.90
11922;DHT22;6021;51.182;3.160;2023-08-24T05:32:16;17.10;99.90
11922;DHT22;6021;51.182;3.160;2023-08-24T05:34:45;17.10;99.90
11922;DHT22;6021;51.182;3.160;2023-08-24T05:37:14;17.10;99.90
11922;DHT22;6021;51.182;3.160;2023-08-24T05:39:42;17.10;99.90
11922;DHT22;6021;51.182;3.160;2023-08-24T05:42:11;17.10;99.90
11922;DHT22;6021;51.182;3.160;2023-08-24T05:44:39;17.20;99.90
11922;DHT22;6021;51.182;3.160;2023-08-24T05:47:08;17.20;99.90
11922;DHT22;6021;51.182;3.160;2023-08-24T05:49:36;17.20;99.90
11922;DHT22;6021;51.182;3.160;2023-08-24T05:52:04;17.20;99.90
11922;DHT22;6021;51.182;3.160;2023-08-24T05:54:33;17.20;99.90
11922;DHT22;6021;51.182;3.160;2023-08-24T05:57:01;17.30;99.90
11922;DHT22;6021;51.182;3.160;2023-08-24T05:59:34;17.30;99.90
11922;DHT22;6021;51.182;3.160;2023-08-24T06:02:03;17.30;99.90
11922;DHT22;6021;51.182;3.160;2023-08-24T06:04:31;17.40;99.90
11922;DHT22;6021;51.182;3.160;2023-08-24T06:07:00;17.40;99.90
11922;DHT22;6021;51.182;3.160;2023-08-24T06:09:28;17.50;99.90
11922;DHT22;6021;51.182;3.160;2023-08-24T06:11:56;17.50;99.90
11922;DHT22;6021;51.182;3.160;2023-08-24T06:14:25;17.50;99.90
11922;DHT22;6021;51.182;3.160;2023-08-24T06:16:53;17.50;99.90
11922;DHT22;6021;51.182;3.160;2023-08-24T06:19:22;17.60;99.90
11922;DHT22;6021;51.182;3.160;2023-08-24T06:21:51;17.70;99.90
11922;DHT22;6021;51.182;3.160;2023-08-24T06:24:19;17.80;99.90
11922;DHT22;6021;51.182;3.160;2023-08-24T06:26:47;17.80;99.90
11922;DHT22;6021;51.182;3.160;2023-08-24T06:29:16;17.90;99.90
11922;DHT22;6021;51.182;3.160;2023-08-24T06:31:44;18.00;99.90
11922;DHT22;6021;51.182;3.160;2023-08-24T06:34:12;18.00;99.90
11922;DHT22;6021;51.182;3.160;2023-08-24T06:36:42;18.10;99.90
11922;DHT22;6021;51.182;3.160;2023-08-24T06:39:10;18.20;99.90
11922;DHT22;6021;51.182;3.160;2023-08-24T06:41:38;18.20;99.90
11922;DHT22;6021;51.182;3.160;2023-08-24T06:44:07;18.30;99.90
11922;DHT22;6021;51.182;3.160;2023-08-24T06:46:35;18.30;99.90
11922;DHT22;6021;51.182;3.160;2023-08-24T06:49:03;18.40;99.90
11922;DHT22;6021;51.182;3.160;2023-08-24T06:51:32;18.50;99.90
11922;DHT22;6021;51.182;3.160;2023-08-24T06:54:00;18.50;99.90
11922;DHT22;6021;51.182;3.160;2023-08-24T06:56:29;18.60;99.90
11922;DHT22;6021;51.182;3.160;2023-08-24T06:58:57;18.60;99.90
11922;DHT22;6021;51.182;3.160;2023-08-24T07:01:25;18.70;99.90
11922;DHT22;6021;51.182;3.160;2023-08-24T07:03:54;18.70;99.90
11922;DHT22;6021;51.182;3.160;2023-08-24T07:06:22;18.70;99.90
11922;DHT22;6021;51.182;3.160;2023-08-24T07:08:52;18.80;99.90
11922;DHT22;6021;51.182;3.160;2023-08-24T07:11:20;18.80;99.90
11922;DHT22;6021;51.182;3.160;2023-08-24T07:13:48;18.80;99.90
11922;DHT22;6021;51.182;3.160;2023-08-24T07:16:18;18.80;99.90
11922;DHT22;6021;51.182;3.160;2023-08-24T07:18:46;18.80;99.90
11922;DHT22;6021;51.182;3.160;2023-08-24T07:21:14;19.00;99.90
11922;DHT22;6021;51.182;3.160;2023-08-24T07:23:44;19.00;99.90
11922;DHT22;6021;51.182;3.160;2023-08-24T07:26:13;18.90;99.90
11922;DHT22;6021;51.182;3.160;2023-08-24T07:28:41;19.00;99.90
11922;DHT22;6021;51.182;3.160;2023-08-24T07:31:10;18.90;99.90
11922;DHT22;6021;51.182;3.160;2023-08-24T07:33:38;18.90;99.90
11922;DHT22;6021;51.182;3.160;2023-08-24T07:36:07;19.00;99.90
11922;DHT22;6021;51.182;3.160;2023-08-24T07:38:35;19.00;99.90
11922;DHT22;6021;51.182;3.160;2023-08-24T07:41:03;19.00;99.90
11922;DHT22;6021;51.182;3.160;2023-08-24T07:43:33;19.00;99.90
11922;DHT22;6021;51.182;3.160;2023-08-24T07:46:02;18.90;99.90
11922;DHT22;6021;51.182;3.160;2023-08-24T07:48:30;19.00;99.90
11922;DHT22;6021;51.182;3.160;2023-08-24T07:50:58;18.90;99.90
11922;DHT22;6021;51.182;3.160;2023-08-24T07:53:27;18.90;99.90
11922;DHT22;6021;51.182;3.160;2023-08-24T07:55:55;19.00;99.90
11922;DHT22;6021;51.182;3.160;2023-08-24T07:58:25;19.00;99.90
11922;DHT22;6021;51.182;3.160;2023-08-24T08:00:53;19.10;99.90
11922;DHT22;6021;51.182;3.160;2023-08-24T08:03:22;19.20;99.90
11922;DHT22;6021;51.182;3.160;2023-08-24T08:05:51;19.30;99.90
11922;DHT22;6021;51.182;3.160;2023-08-24T08:08:19;19.50;99.90
11922;DHT22;6021;51.182;3.160;2023-08-24T08:10:47;19.40;99.90
11922;DHT22;6021;51.182;3.160;2023-08-24T08:13:17;19.40;99.90
11922;DHT22;6021;51.182;3.160;2023-08-24T08:15:46;19.40;99.90
11922;DHT22;6021;51.182;3.160;2023-08-24T08:18:15;19.40;99.90
11922;DHT22;6021;51.182;3.160;2023-08-24T08:20:43;19.40;99.90
11922;DHT22;6021;51.182;3.160;2023-08-24T08:23:11;19.40;99.90
11922;DHT22;6021;51.182;3.160;2023-08-24T08:25:39;19.50;99.90
11922;DHT22;6021;51.182;3.160;2023-08-24T08:28:09;19.50;99.90
11922;DHT22;6021;51.182;3.160;2023-08-24T08:30:38;19.60;99.90
11922;DHT22;6021;51.182;3.160;2023-08-24T08:33:06;19.70;99.90
11922;DHT22;6021;51.182;3.160;2023-08-24T08:35:35;19.80;99.90
11922;DHT22;6021;51.182;3.160;2023-08-24T08:38:05;19.90;99.90
11922;DHT22;6021;51.182;3.160;2023-08-24T08:40:36;19.90;99.90
11922;DHT22;6021;51.182;3.160;2023-08-24T08:43:05;19.90;99.90
11922;DHT22;6021;51.182;3.160;2023-08-24T08:45:34;19.80;99.90
11922;DHT22;6021;51.182;3.160;2023-08-24T08:48:02;19.90;99.90
11922;DHT22;6021;51.182;3.160;2023-08-24T08:50:32;19.80;99.90
11922;DHT22;6021;51.182;3.160;2023-08-24T08:53:02;19.80;99.90
11922;DHT22;6021;51.182;3.160;2023-08-24T08:55:31;19.80;99.90
11922;DHT22;6021;51.182;3.160;2023-08-24T08:58:01;19.70;99.90
11922;DHT22;6021;51.182;3.160;2023-08-24T09:00:32;19.80;99.90
11922;DHT22;6021;51.182;3.160;2023-08-24T09:03:01;19.60;99.90
11922;DHT22;6021;51.182;3.160;2023-08-24T09:05:31;19.60;99.90
11922;DHT22;6021;51.182;3.160;2023-08-24T09:08:00;19.50;99.90
11922;DHT22;6021;51.182;3.160;2023-08-24T09:10:30;19.50;99.90
11922;DHT22;6021;51.182;3.160;2023-08-24T09:12:58;19.60;99.90
11922;DHT22;6021;51.182;3.160;2023-08-24T09:15:27;19.70;99.90
11922;DHT22;6021;51.182;3.160;2023-08-24T09:17:55;19.70;99.90
11922;DHT22;6021;51.182;3.160;2023-08-24T09:20:27;19.70;99.90
11922;DHT22;6021;51.182;3.160;2023-08-24T09:22:57;19.70;99.90
11922;DHT22;6021;51.182;3.160;2023-08-24T09:25:25;19.60;99.90
11922;DHT22;6021;51.182;3.160;2023-08-24T09:28:01;19.50;99.90
11922;DHT22;6021;51.182;3.160;2023-08-24T09:30:34;19.50;99.90
11922;DHT22;6021;51.182;3.160;2023-08-24T09:33:09;19.50;99.90
11922;DHT22;6021;51.182;3.160;2023-08-24T09:35:38;19.50;99.90
11922;DHT22;6021;51.182;3.160;2023-08-24T09:38:21;19.40;99.90
11922;DHT22;6021;51.182;3.160;2023-08-24T09:40:54;19.50;99.90
11922;DHT22;6021;51.182;3.160;2023-08-24T09:43:23;19.50;99.90
11922;DHT22;6021;51.182;3.160;2023-08-24T09:45:54;19.50;99.90
11922;DHT22;6021;51.182;3.160;2023-08-24T09:48:23;19.40;99.90
11922;DHT22;6021;51.182;3.160;2023-08-24T09:50:52;19.40;99.90
11922;DHT22;6021;51.182;3.160;2023-08-24T09:53:22;19.30;99.90
11922;DHT22;6021;51.182;3.160;2023-08-24T09:56:00;19.30;99.90
11922;DHT22;6021;51.182;3.160;2023-08-24T09:58:30;19.40;99.90
11922;DHT22;6021;51.182;3.160;2023-08-24T10:00:58;19.70;99.90
11922;DHT22;6021;51.182;3.160;2023-08-24T10:03:30;19.80;99.90
11922;DHT22;6021;51.182;3.160;2023-08-24T10:06:00;19.60;99.90
11922;DHT22;6021;51.182;3.160;2023-08-24T10:08:32;19.50;99.90
11922;DHT22;6021;51.182;3.160;2023-08-24T10:11:01;19.50;99.90
11922;DHT22;6021;51.182;3.160;2023-08-24T10:13:50;19.50;99.90
11922;DHT22;6021;51.182;3.160;2023-08-24T10:16:19;19.50;99.90
11922;DHT22;6021;51.182;3.160;2023-08-24T10:18:49;19.50;99.90
11922;DHT22;6021;51.182;3.160;2023-08-24T10:21:19;19.60;99.90
11922;DHT22;6021;51.182;3.160;2023-08-24T10:23:48;19.60;99.90
11922;DHT22;6021;51.182;3.160;2023-08-24T10:26:17;19.60;99.90
11922;DHT22;6021;51.182;3.160;2023-08-24T10:28:46;19.80;99.90
11922;DHT22;6021;51.182;3.160;2023-08-24T10:31:15;19.90;99.90
11922;DHT22;6021;51.182;3.160;2023-08-24T10:33:45;20.00;99.90
11922;DHT22;6021;51.182;3.160;2023-08-24T10:36:14;20.00;99.90
11922;DHT22;6021;51.182;3.160;2023-08-24T10:38:43;20.20;99.90
11922;DHT22;6021;51.182;3.160;2023-08-24T10:41:11;20.40;99.90
11922;DHT22;6021;51.182;3.160;2023-08-24T10:43:42;20.50;99.90
11922;DHT22;6021;51.182;3.160;2023-08-24T10:46:15;20.60;99.90
11922;DHT22;6021;51.182;3.160;2023-08-24T10:53:55;20.90;99.90
11922;DHT22;6021;51.182;3.160;2023-08-24T10:56:35;21.00;99.90
11922;DHT22;6021;51.182;3.160;2023-08-24T10:59:14;21.10;99.90
11922;DHT22;6021;51.182;3.160;2023-08-24T11:04:23;21.00;99.90
11922;DHT22;6021;51.182;3.160;2023-08-24T11:06:54;21.00;99.90
11922;DHT22;6021;51.182;3.160;2023-08-24T11:09:24;21.20;99.90
11922;DHT22;6021;51.182;3.160;2023-08-24T11:12:02;21.30;99.90
11922;DHT22;6021;51.182;3.160;2023-08-24T11:14:33;21.30;99.90
11922;DHT22;6021;51.182;3.160;2023-08-24T11:17:19;21.40;99.90
11922;DHT22;6021;51.182;3.160;2023-08-24T11:19:53;21.40;99.90
11922;DHT22;6021;51.182;3.160;2023-08-24T11:22:25;21.60;99.90
11922;DHT22;6021;51.182;3.160;2023-08-24T11:24:55;21.50;99.90
11922;DHT22;6021;51.182;3.160;2023-08-24T11:27:24;21.50;99.90
11922;DHT22;6021;51.182;3.160;2023-08-24T11:30:00;21.40;99.90
11922;DHT22;6021;51.182;3.160;2023-08-24T11:32:28;21.30;99.90
11922;DHT22;6021;51.182;3.160;2023-08-24T11:34:57;21.30;99.90
11922;DHT22;6021;51.182;3.160;2023-08-24T11:37:26;21.30;99.90
11922;DHT22;6021;51.182;3.160;2023-08-24T11:39:54;21.30;99.90
11922;DHT22;6021;51.182;3.160;2023-08-24T11:42:23;21.30;99.90
11922;DHT22;6021;51.182;3.160;2023-08-24T11:44:51;21.30;99.90
11922;DHT22;6021;51.182;3.160;2023-08-24T11:47:22;21.20;99.90
11922;DHT22;6021;51.182;3.160;2023-08-24T11:49:51;21.20;99.90
11922;DHT22;6021;51.182;3.160;2023-08-24T11:52:19;21.30;99.90
11922;DHT22;6021;51.182;3.160;2023-08-24T11:54:50;21.20;99.90
11922;DHT22;6021;51.182;3.160;2023-08-24T11:57:18;21.10;99.90
11922;DHT22;6021;51.182;3.160;2023-08-24T11:59:47;21.10;99.90
11922;DHT22;6021;51.182;3.160;2023-08-24T12:02:15;21.30;99.90
11922;DHT22;6021;51.182;3.160;2023-08-24T12:04:48;21.50;99.90
11922;DHT22;6021;51.182;3.160;2023-08-24T12:07:16;21.50;99.90
11922;DHT22;6021;51.182;3.160;2023-08-24T12:09:45;21.50;99.90
11922;DHT22;6021;51.182;3.160;2023-08-24T12:12:17;21.60;99.90
11922;DHT22;6021;51.182;3.160;2023-08-24T12:14:50;21.60;99.90
11922;DHT22;6021;51.182;3.160;2023-08-24T12:17:19;21.50;99.90
11922;DHT22;6021;51.182;3.160;2023-08-24T12:19:58;21.40;99.90
11922;DHT22;6021;51.182;3.160;2023-08-24T12:22:27;21.40;99.90
11922;DHT22;6021;51.182;3.160;2023-08-24T12:24:59;21.30;99.90
11922;DHT22;6021;51.182;3.160;2023-08-24T12:27:27;21.30;99.90
11922;DHT22;6021;51.182;3.160;2023-08-24T12:30:00;21.30;99.90
11922;DHT22;6021;51.182;3.160;2023-08-24T12:32:43;21.60;99.90
11922;DHT22;6021;51.182;3.160;2023-08-24T12:35:17;21.60;99.90
11922;DHT22;6021;51.182;3.160;2023-08-24T12:37:43;21.60;99.90
11922;DHT22;6021;51.182;3.160;2023-08-24T12:40:13;21.60;99.90
11922;DHT22;6021;51.182;3.160;2023-08-24T12:42:42;21.70;99.90
11922;DHT22;6021;51.182;3.160;2023-08-24T12:45:10;21.80;99.90
11922;DHT22;6021;51.182;3.160;2023-08-24T12:47:39;21.80;99.90
11922;DHT22;6021;51.182;3.160;2023-08-24T12:50:07;21.80;99.90
11922;DHT22;6021;51.182;3.160;2023-08-24T12:52:35;21.90;99.90
11922;DHT22;6021;51.182;3.160;2023-08-24T12:55:04;21.90;99.90
11922;DHT22;6021;51.182;3.160;2023-08-24T12:57:33;21.90;99.90
11922;DHT22;6021;51.182;3.160;2023-08-24T13:00:01;21.80;99.90
11922;DHT22;6021;51.182;3.160;2023-08-24T13:02:30;21.70;99.90
11922;DHT22;6021;51.182;3.160;2023-08-24T13:04:59;21.70;99.90
11922;DHT22;6021;51.182;3.160;2023-08-24T13:07:28;21.90;99.90
11922;DHT22;6021;51.182;3.160;2023-08-24T13:09:57;21.90;99.90
11922;DHT22;6021;51.182;3.160;2023-08-24T13:12:25;21.90;99.90
11922;DHT22;6021;51.182;3.160;2023-08-24T13:14:54;21.90;99.90
11922;DHT22;6021;51.182;3.160;2023-08-24T13:17:22;21.90;99.90
11922;DHT22;6021;51.182;3.160;2023-08-24T13:19:50;21.90;99.90
11922;DHT22;6021;51.182;3.160;2023-08-24T13:22:19;21.90;99.90
11922;DHT22;6021;51.182;3.160;2023-08-24T13:24:47;21.90;99.90
11922;DHT22;6021;51.182;3.160;2023-08-24T13:27:16;22.00;99.90
11922;DHT22;6021;51.182;3.160;2023-08-24T13:29:45;22.00;99.90
11922;DHT22;6021;51.182;3.160;2023-08-24T13:32:13;22.20;99.90
11922;DHT22;6021;51.182;3.160;2023-08-24T13:34:41;22.10;99.90
11922;DHT22;6021;51.182;3.160;2023-08-24T13:37:10;21.90;99.90
11922;DHT22;6021;51.182;3.160;2023-08-24T13:39:39;21.70;99.90
11922;DHT22;6021;51.182;3.160;2023-08-24T13:42:07;21.70;99.90
11922;DHT22;6021;51.182;3.160;2023-08-24T13:44:36;21.80;99.90
11922;DHT22;6021;51.182;3.160;2023-08-24T13:47:05;21.80;99.90
11922;DHT22;6021;51.182;3.160;2023-08-24T13:49:33;21.70;99.90
11922;DHT22;6021;51.182;3.160;2023-08-24T13:52:02;21.70;99.90
11922;DHT22;6021;51.182;3.160;2023-08-24T13:54:32;21.60;99.90
11922;DHT22;6021;51.182;3.160;2023-08-24T13:57:00;21.60;99.90
11922;DHT22;6021;51.182;3.160;2023-08-24T13:59:29;21.80;99.90
11922;DHT22;6021;51.182;3.160;2023-08-24T14:01:57;21.80;99.90
11922;DHT22;6021;51.182;3.160;2023-08-24T14:04:26;21.90;99.90
11922;DHT22;6021;51.182;3.160;2023-08-24T14:06:54;21.90;99.90
11922;DHT22;6021;51.182;3.160;2023-08-24T14:09:22;21.80;99.90
11922;DHT22;6021;51.182;3.160;2023-08-24T14:11:51;22.00;99.90
11922;DHT22;6021;51.182;3.160;2023-08-24T14:14:19;22.00;99.90
11922;DHT22;6021;51.182;3.160;2023-08-24T14:16:55;22.10;99.90
11922;DHT22;6021;51.182;3.160;2023-08-24T14:19:24;22.10;99.90
11922;DHT22;6021;51.182;3.160;2023-08-24T14:21:53;22.00;99.90
11922;DHT22;6021;51.182;3.160;2023-08-24T14:24:22;22.10;99.90
11922;DHT22;6021;51.182;3.160;2023-08-24T14:26:50;22.10;99.90
11922;DHT22;6021;51.182;3.160;2023-08-24T14:29:18;21.90;99.90
11922;DHT22;6021;51.182;3.160;2023-08-24T14:31:47;22.00;99.90
11922;DHT22;6021;51.182;3.160;2023-08-24T14:34:15;21.90;99.90
11922;DHT22;6021;51.182;3.160;2023-08-24T14:36:43;22.00;99.90
11922;DHT22;6021;51.182;3.160;2023-08-24T14:39:12;22.00;99.90
11922;DHT22;6021;51.182;3.160;2023-08-24T14:41:41;21.90;99.90
11922;DHT22;6021;51.182;3.160;2023-08-24T14:44:09;21.80;99.90
11922;DHT22;6021;51.182;3.160;2023-08-24T14:46:37;21.70;99.90
11922;DHT22;6021;51.182;3.160;2023-08-24T14:49:06;21.80;99.90
11922;DHT22;6021;51.182;3.160;2023-08-24T14:51:35;21.90;99.90
11922;DHT22;6021;51.182;3.160;2023-08-24T14:54:04;22.10;99.90
11922;DHT22;6021;51.182;3.160;2023-08-24T14:56:34;21.90;99.90
11922;DHT22;6021;51.182;3.160;2023-08-24T14:59:02;22.00;99.90
11922;DHT22;6021;51.182;3.160;2023-08-24T15:01:31;22.00;99.90
11922;DHT22;6021;51.182;3.160;2023-08-24T15:03:59;21.80;99.90
11922;DHT22;6021;51.182;3.160;2023-08-24T15:06:28;21.70;99.90
11922;DHT22;6021;51.182;3.160;2023-08-24T15:08:56;21.90;99.90
11922;DHT22;6021;51.182;3.160;2023-08-24T15:11:26;21.90;99.90
11922;DHT22;6021;51.182;3.160;2023-08-24T15:13:55;22.00;99.90
11922;DHT22;6021;51.182;3.160;2023-08-24T15:16:23;21.90;99.90
11922;DHT22;6021;51.182;3.160;2023-08-24T15:18:51;21.90;99.90
11922;DHT22;6021;51.182;3.160;2023-08-24T15:21:20;21.90;99.90
11922;DHT22;6021;51.182;3.160;2023-08-24T15:23:49;22.00;99.90
11922;DHT22;6021;51.182;3.160;2023-08-24T15:26:17;22.00;99.90
11922;DHT22;6021;51.182;3.160;2023-08-24T15:29:14;22.10;99.90
11922;DHT22;6021;51.182;3.160;2023-08-24T15:31:40;22.20;99.90
11922;DHT22;6021;51.182;3.160;2023-08-24T15:34:09;22.10;99.90
11922;DHT22;6021;51.182;3.160;2023-08-24T15:36:37;22.00;99.90
11922;DHT22;6021;51.182;3.160;2023-08-24T15:39:07;21.90;99.90
11922;DHT22;6021;51.182;3.160;2023-08-24T15:41:35;21.90;99.90
11922;DHT22;6021;51.182;3.160;2023-08-24T15:44:04;22.00;99.90
11922;DHT22;6021;51.182;3.160;2023-08-24T15:46:32;22.10;99.90
11922;DHT22;6021;51.182;3.160;2023-08-24T15:49:00;22.00;99.90
11922;DHT22;6021;51.182;3.160;2023-08-24T15:51:28;22.30;99.90
11922;DHT22;6021;51.182;3.160;2023-08-24T15:53:57;22.20;99.90
11922;DHT22;6021;51.182;3.160;2023-08-24T15:56:27;22.10;99.90
11922;DHT22;6021;51.182;3.160;2023-08-24T15:58:55;22.10;99.90
11922;DHT22;6021;51.182;3.160;2023-08-24T16:01:24;22.30;99.90
11922;DHT22;6021;51.182;3.160;2023-08-24T16:03:52;22.20;99.90
11922;DHT22;6021;51.182;3.160;2023-08-24T16:06:20;22.20;99.90
11922;DHT22;6021;51.182;3.160;2023-08-24T16:08:49;22.30;99.90
11922;DHT22;6021;51.182;3.160;2023-08-24T16:11:17;22.20;99.90
11922;DHT22;6021;51.182;3.160;2023-08-24T16:13:45;22.30;99.90
11922;DHT22;6021;51.182;3.160;2023-08-24T16:16:14;22.20;99.90
11922;DHT22;6021;51.182;3.160;2023-08-24T16:18:42;22.20;99.90
11922;DHT22;6021;51.182;3.160;2023-08-24T16:21:10;22.10;99.90
11922;DHT22;6021;51.182;3.160;2023-08-24T16:23:39;22.20;99.90
11922;DHT22;6021;51.182;3.160;2023-08-24T16:26:07;22.20;99.90
11922;DHT22;6021;51.182;3.160;2023-08-24T16:28:35;22.20;99.90
11922;DHT22;6021;51.182;3.160;2023-08-24T16:31:04;22.10;99.90
11922;DHT22;6021;51.182;3.160;2023-08-24T16:33:32;22.10;99.90